sensor_id;sensor_type;location;lat;lon;timestamp;temperature;humidity
30999;DHT22;20549;50.042;8.968;2022-11-15T00:00:17;14.20;95.90
30999;DHT22;20549;50.042;8.968;2022-11-15T00:02:44;14.10;95.70
30999;DHT22;20549;50.042;8.968;2022-11-15T00:05:10;14.00;95.50
30999;DHT22;20549;50.042;8.968;2022-11-15T00:07:37;14.00;95.50
30999;DHT22;20549;50.042;8.968;2022-11-15T00:10:03;13.90;95.50
30999;DHT22;20549;50.042;8.968;2022-11-15T00:12:30;13.90;95.60
30999;DHT22;20549;50.042;8.968;2022-11-15T00:14:57;13.80;95.70
30999;DHT22;20549;50.042;8.968;2022-11-15T00:17:23;13.70;95.70
30999;DHT22;20549;50.042;8.968;2022-11-15T00:19:50;13.60;95.90
30999;DHT22;20549;50.042;8.968;2022-11-15T00:22:16;13.60;96.10
30999;DHT22;20549;50.042;8.968;2022-11-15T00:24:43;13.50;96.40
30999;DHT22;20549;50.042;8.968;2022-11-15T00:27:09;13.50;96.70
30999;DHT22;20549;50.042;8.968;2022-11-15T00:29:36;13.40;96.80
30999;DHT22;20549;50.042;8.968;2022-11-15T00:32:03;13.40;96.90
30999;DHT22;20549;50.042;8.968;2022-11-15T00:34:29;13.40;97.00
30999;DHT22;20549;50.042;8.968;2022-11-15T00:36:56;13.40;97.00
30999;DHT22;20549;50.042;8.968;2022-11-15T00:39:22;13.30;96.90
30999;DHT22;20549;50.042;8.968;2022-11-15T00:41:49;13.30;96.90
30999;DHT22;20549;50.042;8.968;2022-11-15T00:44:16;13.30;96.90
30999;DHT22;20549;50.042;8.968;2022-11-15T00:46:42;13.20;96.70
30999;DHT22;20549;50.042;8.968;2022-11-15T00:49:09;13.20;97.20
30999;DHT22;20549;50.042;8.968;2022-11-15T00:51:35;13.20;97.50
30999;DHT22;20549;50.042;8.968;2022-11-15T00:54:02;13.20;97.60
30999;DHT22;20549;50.042;8.968;2022-11-15T00:56:29;13.10;97.50
30999;DHT22;20549;50.042;8.968;2022-11-15T00:58:55;13.10;97.50
30999;DHT22;20549;50.042;8.968;2022-11-15T01:01:22;13.10;97.60
30999;DHT22;20549;50.042;8.968;2022-11-15T01:03:48;13.10;97.80
30999;DHT22;20549;50.042;8.968;2022-11-15T01:06:15;13.10;97.90
30999;DHT22;20549;50.042;8.968;2022-11-15T01:08:41;13.10;98.00
30999;DHT22;20549;50.042;8.968;2022-11-15T01:11:09;13.10;98.00
30999;DHT22;20549;50.042;8.968;2022-11-15T01:13:37;13.10;98.10
30999;DHT22;20549;50.042;8.968;2022-11-15T01:16:08;13.10;98.10
30999;DHT22;20549;50.042;8.968;2022-11-15T01:18:34;13.10;98.20
30999;DHT22;20549;50.042;8.968;2022-11-15T01:21:04;13.10;98.20
30999;DHT22;20549;50.042;8.968;2022-11-15T01:23:27;13.20;98.30
30999;DHT22;20549;50.042;8.968;2022-11-15T01:25:58;13.20;98.20
30999;DHT22;20549;50.042;8.968;2022-11-15T01:28:20;13.20;98.20
30999;DHT22;20549;50.042;8.968;2022-11-15T01:30:46;13.20;98.00
30999;DHT22;20549;50.042;8.968;2022-11-15T01:33:13;13.20;97.90
30999;DHT22;20549;50.042;8.968;2022-11-15T01:35:40;13.20;97.90
30999;DHT22;20549;50.042;8.968;2022-11-15T01:38:06;13.20;97.90
30999;DHT22;20549;50.042;8.968;2022-11-15T01:40:33;13.30;97.90
30999;DHT22;20549;50.042;8.968;2022-11-15T01:43:17;13.30;97.90
30999;DHT22;20549;50.042;8.968;2022-11-15T01:45:26;13.30;98.00
30999;DHT22;20549;50.042;8.968;2022-11-15T01:47:53;13.30;97.90
30999;DHT22;20549;50.042;8.968;2022-11-15T01:50:20;13.30;97.80
30999;DHT22;20549;50.042;8.968;2022-11-15T01:52:46;13.40;97.80
30999;DHT22;20549;50.042;8.968;2022-11-15T01:55:19;13.40;97.80
30999;DHT22;20549;50.042;8.968;2022-11-15T01:57:45;13.40;97.70
30999;DHT22;20549;50.042;8.968;2022-11-15T02:00:12;13.40;97.50
30999;DHT22;20549;50.042;8.968;2022-11-15T02:02:38;13.50;97.20
30999;DHT22;20549;50.042;8.968;2022-11-15T02:05:05;13.50;97.00
30999;DHT22;20549;50.042;8.968;2022-11-15T02:07:31;13.40;96.70
30999;DHT22;20549;50.042;8.968;2022-11-15T02:09:58;13.40;96.50
30999;DHT22;20549;50.042;8.968;2022-11-15T02:12:24;13.40;96.40
30999;DHT22;20549;50.042;8.968;2022-11-15T02:14:52;13.30;96.20
30999;DHT22;20549;50.042;8.968;2022-11-15T02:17:42;13.30;96.20
30999;DHT22;20549;50.042;8.968;2022-11-15T02:20:29;13.20;96.10
30999;DHT22;20549;50.042;8.968;2022-11-15T02:31:11;13.00;96.70
30999;DHT22;20549;50.042;8.968;2022-11-15T02:33:50;13.00;96.90
30999;DHT22;20549;50.042;8.968;2022-11-15T02:36:15;13.00;97.10
30999;DHT22;20549;50.042;8.968;2022-11-15T02:41:13;12.90;97.40
30999;DHT22;20549;50.042;8.968;2022-11-15T02:44:03;12.90;97.50
30999;DHT22;20549;50.042;8.968;2022-11-15T02:49:22;13.00;97.70
30999;DHT22;20549;50.042;8.968;2022-11-15T02:51:49;13.00;97.70
30999;DHT22;20549;50.042;8.968;2022-11-15T02:54:18;13.00;97.80
30999;DHT22;20549;50.042;8.968;2022-11-15T02:56:42;13.00;97.90
30999;DHT22;20549;50.042;8.968;2022-11-15T02:59:20;13.00;97.90
30999;DHT22;20549;50.042;8.968;2022-11-15T03:04:39;13.10;97.70
30999;DHT22;20549;50.042;8.968;2022-11-15T03:07:10;13.10;97.60
30999;DHT22;20549;50.042;8.968;2022-11-15T03:09:40;13.20;97.40
30999;DHT22;20549;50.042;8.968;2022-11-15T03:12:12;13.10;97.10
30999;DHT22;20549;50.042;8.968;2022-11-15T03:14:47;13.10;96.80
30999;DHT22;20549;50.042;8.968;2022-11-15T03:17:19;13.10;96.60
30999;DHT22;20549;50.042;8.968;2022-11-15T03:19:45;13.10;96.40
30999;DHT22;20549;50.042;8.968;2022-11-15T03:22:12;13.00;96.30
30999;DHT22;20549;50.042;8.968;2022-11-15T03:24:38;12.90;96.20
30999;DHT22;20549;50.042;8.968;2022-11-15T03:27:05;12.90;96.20
30999;DHT22;20549;50.042;8.968;2022-11-15T03:29:35;12.80;96.20
30999;DHT22;20549;50.042;8.968;2022-11-15T03:32:02;12.70;96.10
30999;DHT22;20549;50.042;8.968;2022-11-15T03:34:28;12.70;96.20
30999;DHT22;20549;50.042;8.968;2022-11-15T03:36:54;12.60;96.30
30999;DHT22;20549;50.042;8.968;2022-11-15T03:39:20;12.50;96.40
30999;DHT22;20549;50.042;8.968;2022-11-15T03:42:03;12.50;96.50
30999;DHT22;20549;50.042;8.968;2022-11-15T03:49:55;12.30;97.00
30999;DHT22;20549;50.042;8.968;2022-11-15T03:52:19;12.30;97.20
30999;DHT22;20549;50.042;8.968;2022-11-15T03:54:52;12.20;97.20
30999;DHT22;20549;50.042;8.968;2022-11-15T03:57:17;12.20;97.30
30999;DHT22;20549;50.042;8.968;2022-11-15T03:59:44;12.20;97.40
30999;DHT22;20549;50.042;8.968;2022-11-15T04:02:11;12.10;97.50
30999;DHT22;20549;50.042;8.968;2022-11-15T04:04:37;12.10;97.70
30999;DHT22;20549;50.042;8.968;2022-11-15T04:07:04;12.00;98.00
30999;DHT22;20549;50.042;8.968;2022-11-15T04:09:30;12.00;98.30
30999;DHT22;20549;50.042;8.968;2022-11-15T04:11:57;12.00;98.60
30999;DHT22;20549;50.042;8.968;2022-11-15T04:14:23;12.00;98.90
30999;DHT22;20549;50.042;8.968;2022-11-15T04:16:50;12.10;99.20
30999;DHT22;20549;50.042;8.968;2022-11-15T04:19:16;12.10;99.40
30999;DHT22;20549;50.042;8.968;2022-11-15T04:22:01;12.10;99.50
30999;DHT22;20549;50.042;8.968;2022-11-15T04:25:18;12.20;99.70
30999;DHT22;20549;50.042;8.968;2022-11-15T04:27:45;12.20;99.70
30999;DHT22;20549;50.042;8.968;2022-11-15T04:30:12;12.30;99.70
30999;DHT22;20549;50.042;8.968;2022-11-15T04:32:38;12.30;99.70
30999;DHT22;20549;50.042;8.968;2022-11-15T04:35:05;12.40;99.70
30999;DHT22;20549;50.042;8.968;2022-11-15T04:37:31;12.40;99.60
30999;DHT22;20549;50.042;8.968;2022-11-15T04:39:58;12.50;99.60
30999;DHT22;20549;50.042;8.968;2022-11-15T04:42:25;12.50;99.50
30999;DHT22;20549;50.042;8.968;2022-11-15T04:44:51;12.60;99.40
30999;DHT22;20549;50.042;8.968;2022-11-15T04:47:18;12.60;99.30
30999;DHT22;20549;50.042;8.968;2022-11-15T04:49:44;12.60;99.20
30999;DHT22;20549;50.042;8.968;2022-11-15T04:52:11;12.70;99.20
30999;DHT22;20549;50.042;8.968;2022-11-15T04:54:38;12.70;99.00
30999;DHT22;20549;50.042;8.968;2022-11-15T04:57:04;12.80;99.00
30999;DHT22;20549;50.042;8.968;2022-11-15T04:59:31;12.80;98.90
30999;DHT22;20549;50.042;8.968;2022-11-15T05:01:57;12.80;98.80
30999;DHT22;20549;50.042;8.968;2022-11-15T05:04:24;12.90;98.80
30999;DHT22;20549;50.042;8.968;2022-11-15T05:06:51;12.90;98.70
30999;DHT22;20549;50.042;8.968;2022-11-15T05:09:17;12.90;98.60
30999;DHT22;20549;50.042;8.968;2022-11-15T05:11:44;12.90;98.50
30999;DHT22;20549;50.042;8.968;2022-11-15T05:14:10;13.00;98.50
30999;DHT22;20549;50.042;8.968;2022-11-15T05:16:37;13.00;98.40
30999;DHT22;20549;50.042;8.968;2022-11-15T05:19:04;13.00;98.30
30999;DHT22;20549;50.042;8.968;2022-11-15T05:21:30;13.00;98.30
30999;DHT22;20549;50.042;8.968;2022-11-15T05:23:57;13.00;98.30
30999;DHT22;20549;50.042;8.968;2022-11-15T05:26:23;13.00;98.20
30999;DHT22;20549;50.042;8.968;2022-11-15T05:28:53;13.10;98.20
30999;DHT22;20549;50.042;8.968;2022-11-15T05:31:19;13.10;98.20
30999;DHT22;20549;50.042;8.968;2022-11-15T05:33:46;13.10;98.10
30999;DHT22;20549;50.042;8.968;2022-11-15T05:36:33;13.10;98.00
30999;DHT22;20549;50.042;8.968;2022-11-15T05:38:58;13.10;98.00
30999;DHT22;20549;50.042;8.968;2022-11-15T05:41:26;13.10;97.90
30999;DHT22;20549;50.042;8.968;2022-11-15T05:43:51;13.10;97.80
30999;DHT22;20549;50.042;8.968;2022-11-15T05:46:17;13.10;97.70
30999;DHT22;20549;50.042;8.968;2022-11-15T05:48:45;13.10;97.60
30999;DHT22;20549;50.042;8.968;2022-11-15T05:51:11;13.10;97.50
30999;DHT22;20549;50.042;8.968;2022-11-15T05:53:37;13.10;97.50
30999;DHT22;20549;50.042;8.968;2022-11-15T05:56:04;13.10;97.50
30999;DHT22;20549;50.042;8.968;2022-11-15T05:58:31;13.10;97.50
30999;DHT22;20549;50.042;8.968;2022-11-15T06:00:57;13.00;97.50
30999;DHT22;20549;50.042;8.968;2022-11-15T06:03:24;13.00;97.50
30999;DHT22;20549;50.042;8.968;2022-11-15T06:05:50;13.00;97.40
30999;DHT22;20549;50.042;8.968;2022-11-15T06:08:17;13.00;97.20
30999;DHT22;20549;50.042;8.968;2022-11-15T06:10:43;13.00;97.20
30999;DHT22;20549;50.042;8.968;2022-11-15T06:13:10;13.00;97.20
30999;DHT22;20549;50.042;8.968;2022-11-15T06:15:36;12.90;97.20
30999;DHT22;20549;50.042;8.968;2022-11-15T06:18:03;12.90;97.30
30999;DHT22;20549;50.042;8.968;2022-11-15T06:20:30;12.90;97.50
30999;DHT22;20549;50.042;8.968;2022-11-15T06:23:00;12.90;97.50
30999;DHT22;20549;50.042;8.968;2022-11-15T06:25:26;12.90;97.70
30999;DHT22;20549;50.042;8.968;2022-11-15T06:27:52;12.90;97.80
30999;DHT22;20549;50.042;8.968;2022-11-15T06:30:19;12.90;97.90
30999;DHT22;20549;50.042;8.968;2022-11-15T06:32:45;12.90;97.90
30999;DHT22;20549;50.042;8.968;2022-11-15T06:35:12;12.90;97.90
30999;DHT22;20549;50.042;8.968;2022-11-15T06:37:39;12.90;97.90
30999;DHT22;20549;50.042;8.968;2022-11-15T06:40:05;12.90;98.00
30999;DHT22;20549;50.042;8.968;2022-11-15T06:42:32;12.90;97.90
30999;DHT22;20549;50.042;8.968;2022-11-15T06:44:58;12.90;97.80
30999;DHT22;20549;50.042;8.968;2022-11-15T06:47:25;12.90;97.80
30999;DHT22;20549;50.042;8.968;2022-11-15T06:49:51;12.90;97.90
30999;DHT22;20549;50.042;8.968;2022-11-15T06:52:18;12.90;98.00
30999;DHT22;20549;50.042;8.968;2022-11-15T06:54:45;12.90;98.10
30999;DHT22;20549;50.042;8.968;2022-11-15T06:57:11;13.00;98.30
30999;DHT22;20549;50.042;8.968;2022-11-15T06:59:38;13.00;98.60
30999;DHT22;20549;50.042;8.968;2022-11-15T07:02:04;13.10;98.80
30999;DHT22;20549;50.042;8.968;2022-11-15T07:04:31;13.20;98.70
30999;DHT22;20549;50.042;8.968;2022-11-15T07:06:58;13.30;98.40
30999;DHT22;20549;50.042;8.968;2022-11-15T07:09:24;13.40;98.20
30999;DHT22;20549;50.042;8.968;2022-11-15T07:11:51;13.40;97.90
30999;DHT22;20549;50.042;8.968;2022-11-15T07:14:17;13.50;97.60
30999;DHT22;20549;50.042;8.968;2022-11-15T07:16:44;13.50;97.30
30999;DHT22;20549;50.042;8.968;2022-11-15T07:19:10;13.50;97.00
30999;DHT22;20549;50.042;8.968;2022-11-15T07:21:37;13.50;96.90
30999;DHT22;20549;50.042;8.968;2022-11-15T07:24:04;13.60;96.90
30999;DHT22;20549;50.042;8.968;2022-11-15T07:26:30;13.60;97.50
30999;DHT22;20549;50.042;8.968;2022-11-15T07:28:57;13.70;98.00
30999;DHT22;20549;50.042;8.968;2022-11-15T07:31:23;13.90;98.50
30999;DHT22;20549;50.042;8.968;2022-11-15T07:33:50;14.20;99.40
30999;DHT22;20549;50.042;8.968;2022-11-15T07:36:17;14.50;99.90
30999;DHT22;20549;50.042;8.968;2022-11-15T07:38:43;14.90;99.80
30999;DHT22;20549;50.042;8.968;2022-11-15T07:41:10;15.30;99.70
30999;DHT22;20549;50.042;8.968;2022-11-15T07:43:36;15.80;99.80
30999;DHT22;20549;50.042;8.968;2022-11-15T07:46:07;16.20;99.50
30999;DHT22;20549;50.042;8.968;2022-11-15T07:48:33;16.70;98.00
30999;DHT22;20549;50.042;8.968;2022-11-15T07:50:59;17.10;96.10
30999;DHT22;20549;50.042;8.968;2022-11-15T07:53:26;17.50;94.80
30999;DHT22;20549;50.042;8.968;2022-11-15T07:55:52;17.80;93.70
30999;DHT22;20549;50.042;8.968;2022-11-15T07:58:19;18.00;92.40
30999;DHT22;20549;50.042;8.968;2022-11-15T08:00:46;18.20;90.70
30999;DHT22;20549;50.042;8.968;2022-11-15T08:03:13;18.30;88.30
30999;DHT22;20549;50.042;8.968;2022-11-15T08:05:39;18.20;86.10
30999;DHT22;20549;50.042;8.968;2022-11-15T08:08:06;18.10;85.10
30999;DHT22;20549;50.042;8.968;2022-11-15T08:10:32;18.00;84.50
30999;DHT22;20549;50.042;8.968;2022-11-15T08:13:06;17.90;84.50
30999;DHT22;20549;50.042;8.968;2022-11-15T08:15:31;17.80;84.50
30999;DHT22;20549;50.042;8.968;2022-11-15T08:17:59;17.60;84.10
30999;DHT22;20549;50.042;8.968;2022-11-15T08:20:25;17.50;83.90
30999;DHT22;20549;50.042;8.968;2022-11-15T08:22:51;17.40;83.90
30999;DHT22;20549;50.042;8.968;2022-11-15T08:25:18;17.20;83.90
30999;DHT22;20549;50.042;8.968;2022-11-15T08:27:44;17.10;84.10
30999;DHT22;20549;50.042;8.968;2022-11-15T08:30:11;17.00;84.40
30999;DHT22;20549;50.042;8.968;2022-11-15T08:32:37;16.90;84.60
30999;DHT22;20549;50.042;8.968;2022-11-15T08:35:04;16.90;85.00
30999;DHT22;20549;50.042;8.968;2022-11-15T08:37:31;16.80;85.20
30999;DHT22;20549;50.042;8.968;2022-11-15T08:39:57;16.70;85.30
30999;DHT22;20549;50.042;8.968;2022-11-15T08:42:24;16.70;84.80
30999;DHT22;20549;50.042;8.968;2022-11-15T08:44:50;16.60;85.60
30999;DHT22;20549;50.042;8.968;2022-11-15T08:47:17;16.60;85.40
30999;DHT22;20549;50.042;8.968;2022-11-15T08:49:44;16.50;85.40
30999;DHT22;20549;50.042;8.968;2022-11-15T08:52:10;16.50;85.00
30999;DHT22;20549;50.042;8.968;2022-11-15T08:54:37;16.40;85.20
30999;DHT22;20549;50.042;8.968;2022-11-15T08:57:03;16.30;85.00
30999;DHT22;20549;50.042;8.968;2022-11-15T08:59:30;16.30;85.00
30999;DHT22;20549;50.042;8.968;2022-11-15T09:01:56;16.20;85.10
30999;DHT22;20549;50.042;8.968;2022-11-15T09:04:23;16.10;85.10
30999;DHT22;20549;50.042;8.968;2022-11-15T09:06:50;16.10;85.30
30999;DHT22;20549;50.042;8.968;2022-11-15T09:09:16;16.00;85.30
30999;DHT22;20549;50.042;8.968;2022-11-15T09:11:43;16.00;85.60
30999;DHT22;20549;50.042;8.968;2022-11-15T09:14:13;16.00;85.80
30999;DHT22;20549;50.042;8.968;2022-11-15T09:16:39;15.90;86.00
30999;DHT22;20549;50.042;8.968;2022-11-15T09:19:06;15.90;86.40
30999;DHT22;20549;50.042;8.968;2022-11-15T09:21:32;15.90;86.80
30999;DHT22;20549;50.042;8.968;2022-11-15T09:23:59;15.90;87.00
30999;DHT22;20549;50.042;8.968;2022-11-15T09:26:25;15.90;87.30
30999;DHT22;20549;50.042;8.968;2022-11-15T09:28:52;16.00;87.60
30999;DHT22;20549;50.042;8.968;2022-11-15T09:31:19;16.00;87.70
30999;DHT22;20549;50.042;8.968;2022-11-15T09:33:45;16.00;87.90
30999;DHT22;20549;50.042;8.968;2022-11-15T09:36:12;16.10;88.10
30999;DHT22;20549;50.042;8.968;2022-11-15T09:38:38;16.10;89.10
30999;DHT22;20549;50.042;8.968;2022-11-15T09:46:13;16.30;88.40
30999;DHT22;20549;50.042;8.968;2022-11-15T09:48:46;16.40;88.10
30999;DHT22;20549;50.042;8.968;2022-11-15T09:51:12;16.50;87.80
30999;DHT22;20549;50.042;8.968;2022-11-15T09:53:56;16.50;87.70
30999;DHT22;20549;50.042;8.968;2022-11-15T09:56:21;16.60;88.00
30999;DHT22;20549;50.042;8.968;2022-11-15T10:04:22;16.80;87.50
30999;DHT22;20549;50.042;8.968;2022-11-15T10:07:24;16.90;87.20
30999;DHT22;20549;50.042;8.968;2022-11-15T10:12:09;17.00;86.50
30999;DHT22;20549;50.042;8.968;2022-11-15T10:14:36;17.10;86.30
30999;DHT22;20549;50.042;8.968;2022-11-15T10:22:50;17.20;86.20
30999;DHT22;20549;50.042;8.968;2022-11-15T10:25:32;17.30;86.20
30999;DHT22;20549;50.042;8.968;2022-11-15T10:27:56;17.40;86.40
30999;DHT22;20549;50.042;8.968;2022-11-15T10:30:21;17.40;86.30
30999;DHT22;20549;50.042;8.968;2022-11-15T10:32:48;17.50;86.10
30999;DHT22;20549;50.042;8.968;2022-11-15T10:35:25;17.60;85.70
30999;DHT22;20549;50.042;8.968;2022-11-15T10:37:50;17.70;85.30
30999;DHT22;20549;50.042;8.968;2022-11-15T10:42:43;17.80;84.80
30999;DHT22;20549;50.042;8.968;2022-11-15T10:45:26;17.90;84.50
30999;DHT22;20549;50.042;8.968;2022-11-15T10:47:51;18.00;84.30
30999;DHT22;20549;50.042;8.968;2022-11-15T10:50:28;18.10;84.10
30999;DHT22;20549;50.042;8.968;2022-11-15T10:52:53;18.10;83.70
30999;DHT22;20549;50.042;8.968;2022-11-15T10:55:21;18.20;83.30
30999;DHT22;20549;50.042;8.968;2022-11-15T10:57:53;18.20;82.80
30999;DHT22;20549;50.042;8.968;2022-11-15T11:05:39;18.30;82.00
30999;DHT22;20549;50.042;8.968;2022-11-15T11:10:37;18.30;81.50
30999;DHT22;20549;50.042;8.968;2022-11-15T11:13:23;18.30;81.50
30999;DHT22;20549;50.042;8.968;2022-11-15T11:15:51;18.30;81.50
30999;DHT22;20549;50.042;8.968;2022-11-15T11:18:19;18.30;81.40
30999;DHT22;20549;50.042;8.968;2022-11-15T11:23:36;18.30;81.10
30999;DHT22;20549;50.042;8.968;2022-11-15T11:31:51;18.10;81.10
30999;DHT22;20549;50.042;8.968;2022-11-15T11:37:17;18.10;81.40
30999;DHT22;20549;50.042;8.968;2022-11-15T11:42:24;18.10;82.60
30999;DHT22;20549;50.042;8.968;2022-11-15T11:44:51;18.10;82.80
30999;DHT22;20549;50.042;8.968;2022-11-15T11:47:23;18.10;82.80
30999;DHT22;20549;50.042;8.968;2022-11-15T11:49:50;18.10;82.90
30999;DHT22;20549;50.042;8.968;2022-11-15T11:52:23;18.20;82.60
30999;DHT22;20549;50.042;8.968;2022-11-15T11:55:16;18.20;82.30
30999;DHT22;20549;50.042;8.968;2022-11-15T12:00:26;18.30;81.80
30999;DHT22;20549;50.042;8.968;2022-11-15T12:03:10;18.30;81.20
30999;DHT22;20549;50.042;8.968;2022-11-15T12:08:27;18.30;80.40
30999;DHT22;20549;50.042;8.968;2022-11-15T12:11:06;18.30;80.20
30999;DHT22;20549;50.042;8.968;2022-11-15T12:13:28;18.30;80.30
30999;DHT22;20549;50.042;8.968;2022-11-15T12:18:53;18.40;80.60
30999;DHT22;20549;50.042;8.968;2022-11-15T12:21:18;18.40;80.70
30999;DHT22;20549;50.042;8.968;2022-11-15T12:23:45;18.40;80.40
30999;DHT22;20549;50.042;8.968;2022-11-15T12:26:11;18.50;80.60
30999;DHT22;20549;50.042;8.968;2022-11-15T12:28:55;18.60;80.40
30999;DHT22;20549;50.042;8.968;2022-11-15T12:31:26;18.60;80.00
30999;DHT22;20549;50.042;8.968;2022-11-15T12:33:48;18.70;79.80
30999;DHT22;20549;50.042;8.968;2022-11-15T12:41:19;18.80;79.80
30999;DHT22;20549;50.042;8.968;2022-11-15T12:43:46;18.80;79.50
30999;DHT22;20549;50.042;8.968;2022-11-15T12:46:14;18.80;79.30
30999;DHT22;20549;50.042;8.968;2022-11-15T12:51:05;18.90;79.00
30999;DHT22;20549;50.042;8.968;2022-11-15T12:53:33;18.90;78.90
30999;DHT22;20549;50.042;8.968;2022-11-15T13:06:42;18.90;79.00
30999;DHT22;20549;50.042;8.968;2022-11-15T13:19:47;18.80;78.90
30999;DHT22;20549;50.042;8.968;2022-11-15T13:22:12;18.80;79.00
30999;DHT22;20549;50.042;8.968;2022-11-15T13:24:57;18.80;78.90
30999;DHT22;20549;50.042;8.968;2022-11-15T13:27:23;18.90;78.90
30999;DHT22;20549;50.042;8.968;2022-11-15T13:29:50;18.80;78.50
30999;DHT22;20549;50.042;8.968;2022-11-15T13:32:16;18.80;78.20
30999;DHT22;20549;50.042;8.968;2022-11-15T13:34:44;18.80;78.20
30999;DHT22;20549;50.042;8.968;2022-11-15T13:37:27;18.80;77.90
30999;DHT22;20549;50.042;8.968;2022-11-15T13:39:39;18.80;78.00
30999;DHT22;20549;50.042;8.968;2022-11-15T13:42:12;18.80;78.00
30999;DHT22;20549;50.042;8.968;2022-11-15T13:44:32;18.70;77.10
30999;DHT22;20549;50.042;8.968;2022-11-15T13:47:14;18.70;78.00
30999;DHT22;20549;50.042;8.968;2022-11-15T13:49:40;18.70;78.20
30999;DHT22;20549;50.042;8.968;2022-11-15T13:52:07;18.60;78.40
30999;DHT22;20549;50.042;8.968;2022-11-15T13:54:43;18.70;78.70
30999;DHT22;20549;50.042;8.968;2022-11-15T13:57:19;18.60;78.80
30999;DHT22;20549;50.042;8.968;2022-11-15T13:59:57;18.70;79.00
30999;DHT22;20549;50.042;8.968;2022-11-15T14:02:21;18.70;79.20
30999;DHT22;20549;50.042;8.968;2022-11-15T14:04:51;18.70;79.00
30999;DHT22;20549;50.042;8.968;2022-11-15T14:07:20;18.70;78.80
30999;DHT22;20549;50.042;8.968;2022-11-15T14:09:45;18.70;78.40
30999;DHT22;20549;50.042;8.968;2022-11-15T14:12:32;18.70;78.10
30999;DHT22;20549;50.042;8.968;2022-11-15T14:14:58;18.70;77.80
30999;DHT22;20549;50.042;8.968;2022-11-15T14:19:56;18.50;77.10
30999;DHT22;20549;50.042;8.968;2022-11-15T14:22:26;18.50;77.10
30999;DHT22;20549;50.042;8.968;2022-11-15T14:27:37;18.30;77.10
30999;DHT22;20549;50.042;8.968;2022-11-15T14:30:04;18.30;77.20
30999;DHT22;20549;50.042;8.968;2022-11-15T14:32:52;18.20;77.30
30999;DHT22;20549;50.042;8.968;2022-11-15T14:35:00;18.20;77.30
30999;DHT22;20549;50.042;8.968;2022-11-15T14:37:29;18.10;77.30
30999;DHT22;20549;50.042;8.968;2022-11-15T14:39:55;18.10;77.30
30999;DHT22;20549;50.042;8.968;2022-11-15T14:42:22;18.10;77.30
30999;DHT22;20549;50.042;8.968;2022-11-15T14:44:48;18.00;77.30
30999;DHT22;20549;50.042;8.968;2022-11-15T14:47:15;18.00;77.30
30999;DHT22;20549;50.042;8.968;2022-11-15T14:49:42;18.00;77.30
30999;DHT22;20549;50.042;8.968;2022-11-15T14:52:29;17.90;77.20
30999;DHT22;20549;50.042;8.968;2022-11-15T14:54:55;17.90;77.20
30999;DHT22;20549;50.042;8.968;2022-11-15T14:57:21;17.80;77.30
30999;DHT22;20549;50.042;8.968;2022-11-15T14:59:48;17.80;77.30
30999;DHT22;20549;50.042;8.968;2022-11-15T15:02:21;17.80;77.30
30999;DHT22;20549;50.042;8.968;2022-11-15T15:04:47;17.70;77.40
30999;DHT22;20549;50.042;8.968;2022-11-15T15:07:13;17.70;77.50
30999;DHT22;20549;50.042;8.968;2022-11-15T15:09:40;17.60;77.40
30999;DHT22;20549;50.042;8.968;2022-11-15T15:12:19;17.60;77.50
30999;DHT22;20549;50.042;8.968;2022-11-15T15:14:42;17.50;77.50
30999;DHT22;20549;50.042;8.968;2022-11-15T15:17:09;17.50;77.50
30999;DHT22;20549;50.042;8.968;2022-11-15T15:19:35;17.50;77.50
30999;DHT22;20549;50.042;8.968;2022-11-15T15:22:02;17.40;77.60
30999;DHT22;20549;50.042;8.968;2022-11-15T15:24:28;17.40;77.60
30999;DHT22;20549;50.042;8.968;2022-11-15T15:26:55;17.30;77.50
30999;DHT22;20549;50.042;8.968;2022-11-15T15:29:22;17.30;77.50
30999;DHT22;20549;50.042;8.968;2022-11-15T15:31:48;17.20;77.50
30999;DHT22;20549;50.042;8.968;2022-11-15T15:34:15;17.20;77.60
30999;DHT22;20549;50.042;8.968;2022-11-15T15:36:41;17.10;77.50
30999;DHT22;20549;50.042;8.968;2022-11-15T15:39:08;17.00;77.50
30999;DHT22;20549;50.042;8.968;2022-11-15T15:41:34;16.90;77.60
30999;DHT22;20549;50.042;8.968;2022-11-15T15:44:01;16.90;77.80
30999;DHT22;20549;50.042;8.968;2022-11-15T15:46:28;16.80;78.10
30999;DHT22;20549;50.042;8.968;2022-11-15T15:48:54;16.70;78.00
30999;DHT22;20549;50.042;8.968;2022-11-15T15:51:21;16.60;78.10
30999;DHT22;20549;50.042;8.968;2022-11-15T15:53:47;16.50;78.20
30999;DHT22;20549;50.042;8.968;2022-11-15T15:56:14;16.40;78.40
30999;DHT22;20549;50.042;8.968;2022-11-15T15:58:41;16.40;78.60
30999;DHT22;20549;50.042;8.968;2022-11-15T16:01:07;16.30;78.90
30999;DHT22;20549;50.042;8.968;2022-11-15T16:03:34;16.20;79.00
30999;DHT22;20549;50.042;8.968;2022-11-15T16:06:00;16.20;79.30
30999;DHT22;20549;50.042;8.968;2022-11-15T16:08:27;16.20;79.60
30999;DHT22;20549;50.042;8.968;2022-11-15T16:10:54;16.10;79.70
30999;DHT22;20549;50.042;8.968;2022-11-15T16:13:20;16.20;80.00
30999;DHT22;20549;50.042;8.968;2022-11-15T16:15:48;16.10;80.10
30999;DHT22;20549;50.042;8.968;2022-11-15T16:18:17;16.10;80.30
30999;DHT22;20549;50.042;8.968;2022-11-15T16:20:43;16.00;80.40
30999;DHT22;20549;50.042;8.968;2022-11-15T16:23:07;16.00;80.40
30999;DHT22;20549;50.042;8.968;2022-11-15T16:25:39;16.00;80.60
30999;DHT22;20549;50.042;8.968;2022-11-15T16:28:02;16.00;80.70
30999;DHT22;20549;50.042;8.968;2022-11-15T16:30:29;16.00;80.80
30999;DHT22;20549;50.042;8.968;2022-11-15T16:32:55;16.00;80.80
30999;DHT22;20549;50.042;8.968;2022-11-15T16:35:22;16.00;80.90
30999;DHT22;20549;50.042;8.968;2022-11-15T16:37:49;16.00;80.90
30999;DHT22;20549;50.042;8.968;2022-11-15T16:40:28;16.00;80.90
30999;DHT22;20549;50.042;8.968;2022-11-15T16:42:54;16.00;81.00
30999;DHT22;20549;50.042;8.968;2022-11-15T16:45:20;16.00;81.00
30999;DHT22;20549;50.042;8.968;2022-11-15T16:47:47;15.90;81.00
30999;DHT22;20549;50.042;8.968;2022-11-15T16:50:20;15.90;81.00
30999;DHT22;20549;50.042;8.968;2022-11-15T16:52:45;15.90;81.10
30999;DHT22;20549;50.042;8.968;2022-11-15T16:55:12;15.90;81.20
30999;DHT22;20549;50.042;8.968;2022-11-15T16:57:39;15.90;81.30
30999;DHT22;20549;50.042;8.968;2022-11-15T17:00:05;15.90;81.30
30999;DHT22;20549;50.042;8.968;2022-11-15T17:02:32;15.90;81.40
30999;DHT22;20549;50.042;8.968;2022-11-15T17:04:59;15.80;81.50
30999;DHT22;20549;50.042;8.968;2022-11-15T17:07:25;15.80;81.40
30999;DHT22;20549;50.042;8.968;2022-11-15T17:09:52;15.90;81.70
30999;DHT22;20549;50.042;8.968;2022-11-15T17:12:18;15.80;81.50
30999;DHT22;20549;50.042;8.968;2022-11-15T17:14:45;15.80;81.60
30999;DHT22;20549;50.042;8.968;2022-11-15T17:17:12;15.80;81.50
30999;DHT22;20549;50.042;8.968;2022-11-15T17:19:38;15.70;81.40
30999;DHT22;20549;50.042;8.968;2022-11-15T17:22:05;15.70;81.40